Austin, Indiana
Current Conditions -  °F | °C
As of 8:13 PM on Sunday 21 Dec 2014 (Local Time) from KIMS Reporting Station
Clear Clear  
Wind Chill: 27°   Ceiling: Unl
Heat Index: 32°   Visibility: 10mi
Dew Point: 27°   Wind: 5mph
Humidity: 80%   Direction: 80°E
Pressure: 30.16"   Gusts: NA
Location:  38.76°N, 85.81°W
Report Text: KIMS 220113Z AUTO 08004KT 10SM CLR 00/M03 A3016 RMK AO1
Loading
Personal Weather Stations






























Interactive Weather Map New forecast layout! Learn more

10-Day Weather Forecast

Advertisements
Track Severe Weather on mobile